createdAt,value
2018-05-24T00:00:22.213Z,4.77
2018-05-24T00:02:49.689Z,4.13
2018-05-24T00:05:17.154Z,7.13
2018-05-24T00:07:45.499Z,5.80
2018-05-24T00:10:13.666Z,5.57
2018-05-24T00:12:42.023Z,4.80
2018-05-24T00:15:09.494Z,7.73
2018-05-24T00:17:36.958Z,3.43
2018-05-24T00:20:04.428Z,5.97
2018-05-24T00:22:31.888Z,7.07
2018-05-24T00:24:59.538Z,3.73
2018-05-24T00:27:27.021Z,3.77
2018-05-24T00:29:55.295Z,5.37
2018-05-24T00:32:24.517Z,3.90
2018-05-24T00:34:51.993Z,4.70
2018-05-24T00:37:19.458Z,4.13
2018-05-24T00:39:46.939Z,3.40
2018-05-24T00:42:14.402Z,5.17
2018-05-24T00:44:42.659Z,7.67
2018-05-24T00:47:12.263Z,6.30
2018-05-24T00:49:39.885Z,4.80
2018-05-24T00:52:07.348Z,4.07
2018-05-24T00:54:34.832Z,5.77
2018-05-24T00:57:02.286Z,5.50
2018-05-24T00:59:29.768Z,4.53
2018-05-24T01:01:57.997Z,4.17
2018-05-24T01:04:25.495Z,3.80
2018-05-24T01:06:53.006Z,3.43
2018-05-24T01:09:20.486Z,5.00
2018-05-24T01:11:47.973Z,4.57
2018-05-24T01:14:16.213Z,5.57
2018-05-24T01:16:43.685Z,5.80
2018-05-24T01:19:11.144Z,4.33
2018-05-24T01:21:40.117Z,4.43
2018-05-24T01:24:07.578Z,4.70
2018-05-24T01:26:35.051Z,8.47
2018-05-24T01:29:02.510Z,4.10
2018-05-24T01:31:30.746Z,4.40
2018-05-24T01:33:58.202Z,4.07
2018-05-24T01:39:30.180Z,4.87
2018-05-24T01:41:57.661Z,4.93
2018-05-24T01:44:25.121Z,7.53
2018-05-24T01:46:52.600Z,5.47
2018-05-24T01:49:20.862Z,4.67
2018-05-24T01:51:48.332Z,4.97
2018-05-24T01:54:16.568Z,4.93
2018-05-24T01:56:44.038Z,3.57
2018-05-24T01:59:11.509Z,3.47
2018-05-24T02:01:39.737Z,3.50
2018-05-24T02:04:07.205Z,5.23
2018-05-24T02:06:34.677Z,4.73
2018-05-24T02:09:02.166Z,5.37
2018-05-24T02:11:29.622Z,3.17
2018-05-24T02:13:57.853Z,10.13
2018-05-24T02:16:25.333Z,3.83
2018-05-24T02:18:53.572Z,6.80
2018-05-24T02:21:21.029Z,3.93
2018-05-24T02:23:48.509Z,3.00
2018-05-24T02:26:15.973Z,7.80
2018-05-24T02:28:43.462Z,3.60
2018-05-24T02:31:10.918Z,3.20
2018-05-24T02:33:38.393Z,4.93
2018-05-24T02:36:05.963Z,5.23
2018-05-24T02:38:33.370Z,3.50
2018-05-24T02:41:01.617Z,4.90
2018-05-24T02:43:29.095Z,4.47
2018-05-24T02:45:57.362Z,3.23
2018-05-24T02:48:24.827Z,5.33
2018-05-24T02:50:53.064Z,6.17
2018-05-24T02:53:20.541Z,3.37
2018-05-24T02:55:48.014Z,7.17
2018-05-24T02:58:16.942Z,6.17
2018-05-24T03:00:44.425Z,3.70
2018-05-24T03:03:11.888Z,4.10
2018-05-24T03:05:39.373Z,3.37
2018-05-24T03:08:07.598Z,4.53
2018-05-24T03:10:35.082Z,2.90
2018-05-24T03:13:02.547Z,2.73
2018-05-24T03:15:30.013Z,3.87
2018-05-24T03:17:58.266Z,6.23
2018-05-24T03:20:27.248Z,6.67
2018-05-24T03:22:54.721Z,7.20
2018-05-24T03:25:22.945Z,3.20
2018-05-24T03:27:51.075Z,3.97
2018-05-24T03:30:19.306Z,4.30
2018-05-24T03:32:46.789Z,6.07
2018-05-24T03:35:14.268Z,3.73
2018-05-24T03:37:42.514Z,3.63
2018-05-24T03:40:10.002Z,5.93
2018-05-24T03:42:37.482Z,7.47
2018-05-24T03:45:04.945Z,3.90
2018-05-24T03:47:32.424Z,3.97
2018-05-24T03:49:59.897Z,5.90
2018-05-24T03:52:28.134Z,5.10
2018-05-24T03:54:55.600Z,5.13
2018-05-24T03:57:23.078Z,4.07
2018-05-24T04:00:11.341Z,4.23
2018-05-24T04:02:50.649Z,3.70
2018-05-24T04:05:18.093Z,5.67
2018-05-24T04:07:45.573Z,5.83
2018-05-24T04:10:13.793Z,3.97
2018-05-24T04:12:41.264Z,4.43
2018-05-24T04:15:08.724Z,7.80
2018-05-24T04:17:36.190Z,4.37
2018-05-24T04:20:03.672Z,5.83
2018-05-24T04:22:31.146Z,3.97
2018-05-24T04:24:59.386Z,3.93
2018-05-24T04:27:26.854Z,3.83
2018-05-24T04:29:54.333Z,5.30
2018-05-24T04:32:22.601Z,6.07
2018-05-24T04:34:50.849Z,7.00
2018-05-24T04:37:18.305Z,5.97
2018-05-24T04:39:45.785Z,6.40
2018-05-24T04:42:14.008Z,4.50
2018-05-24T04:44:42.367Z,4.87
2018-05-24T04:47:09.843Z,5.47
2018-05-24T04:49:37.356Z,8.50
2018-05-24T04:52:05.600Z,9.10
2018-05-24T04:54:33.094Z,7.60
2018-05-24T04:57:00.569Z,5.73
2018-05-24T04:59:28.043Z,7.13
2018-05-24T05:01:55.504Z,7.20
2018-05-24T05:04:22.975Z,5.70
2018-05-24T05:06:50.430Z,5.00
2018-05-24T05:09:17.925Z,6.73
2018-05-24T05:11:46.200Z,6.00
2018-05-24T05:14:14.417Z,8.10
2018-05-24T05:16:41.896Z,8.37
2018-05-24T05:19:09.350Z,8.70
2018-05-24T05:21:36.821Z,7.37
2018-05-24T05:24:04.318Z,6.67
2018-05-24T05:26:31.802Z,9.30
2018-05-24T05:28:59.269Z,10.60
2018-05-24T05:31:26.742Z,15.73
2018-05-24T05:33:54.206Z,9.73
2018-05-24T05:36:21.689Z,8.60
2018-05-24T05:38:49.157Z,11.57
2018-05-24T05:41:16.741Z,10.77
2018-05-24T05:43:44.210Z,10.50
2018-05-24T05:46:11.682Z,11.87
2018-05-24T05:48:39.916Z,9.50
2018-05-24T05:51:07.504Z,15.70
2018-05-24T05:53:35.981Z,13.33
2018-05-24T05:56:03.444Z,14.20
2018-05-24T05:58:30.976Z,9.37
2018-05-24T06:00:58.439Z,14.30
2018-05-24T06:03:25.914Z,10.63
2018-05-24T06:05:53.378Z,13.80
2018-05-24T06:08:21.628Z,12.00
2018-05-24T06:10:49.115Z,15.00
2018-05-24T06:13:17.461Z,11.53
2018-05-24T06:15:45.663Z,8.43
2018-05-24T06:18:13.223Z,12.63
2018-05-24T06:20:40.677Z,9.23
2018-05-24T06:23:08.159Z,8.87
2018-05-24T06:25:35.659Z,11.50
2018-05-24T06:28:03.141Z,9.53
2018-05-24T06:30:30.613Z,11.00
2018-05-24T06:32:58.853Z,12.20
2018-05-24T06:35:26.553Z,10.40
2018-05-24T06:37:54.801Z,13.10
2018-05-24T06:40:22.273Z,12.90
2018-05-24T06:42:50.509Z,11.37
2018-05-24T06:45:17.978Z,14.00
2018-05-24T06:47:45.462Z,14.30
2018-05-24T06:50:13.694Z,14.93
2018-05-24T06:52:41.167Z,12.97
2018-05-24T06:55:09.422Z,14.70
2018-05-24T06:57:36.878Z,12.13
2018-05-24T07:00:04.358Z,14.30
2018-05-24T07:02:31.829Z,12.80
2018-05-24T07:05:00.077Z,10.97
2018-05-24T07:07:27.547Z,9.97
2018-05-24T07:09:55.034Z,16.47
2018-05-24T07:12:22.568Z,9.67
2018-05-24T07:14:50.070Z,13.53
2018-05-24T07:17:17.541Z,10.97
2018-05-24T07:19:45.022Z,12.67
2018-05-24T07:22:12.492Z,11.20
2018-05-24T07:24:40.770Z,10.83
2018-05-24T07:27:08.213Z,12.30
2018-05-24T07:29:35.700Z,12.93
2018-05-24T07:32:03.929Z,9.03
2018-05-24T07:34:31.433Z,8.37
2018-05-24T07:36:59.656Z,8.83
2018-05-24T07:39:28.338Z,9.53
2018-05-24T07:41:55.831Z,9.43
2018-05-24T07:44:24.116Z,7.00
2018-05-24T07:46:52.369Z,7.63
2018-05-24T07:49:20.858Z,10.40
2018-05-24T07:51:49.136Z,9.50
2018-05-24T07:54:17.358Z,7.73
2018-05-24T07:56:44.848Z,8.40
2018-05-24T07:59:12.320Z,9.17
2018-05-24T08:01:40.623Z,9.03
2018-05-24T08:04:08.059Z,7.93
2018-05-24T08:06:36.388Z,8.00
2018-05-24T08:09:03.895Z,10.63
2018-05-24T08:11:31.391Z,6.90
2018-05-24T08:13:58.881Z,8.37
2018-05-24T08:16:26.357Z,7.83
2018-05-24T08:18:54.593Z,9.43
2018-05-24T08:21:22.089Z,12.37
2018-05-24T08:23:49.569Z,6.07
2018-05-24T08:26:17.041Z,8.43
2018-05-24T08:28:44.539Z,8.97
2018-05-24T08:31:11.997Z,5.97
2018-05-24T08:33:41.092Z,5.73
2018-05-24T08:36:09.345Z,5.70
2018-05-24T08:38:36.857Z,5.93
2018-05-24T08:41:04.321Z,7.53
2018-05-24T08:43:31.861Z,5.53
2018-05-24T08:45:59.337Z,6.37
2018-05-24T08:48:26.849Z,5.07
2018-05-24T08:50:54.329Z,6.90
2018-05-24T08:53:21.893Z,5.37
2018-05-24T08:55:49.294Z,6.43
2018-05-24T08:58:16.760Z,8.53
2018-05-24T09:00:44.227Z,12.73
2018-05-24T09:03:11.705Z,7.00
2018-05-24T09:05:39.962Z,5.20
2018-05-24T09:08:07.426Z,5.60
2018-05-24T09:10:35.669Z,8.10
2018-05-24T09:13:03.121Z,5.73
2018-05-24T09:15:30.608Z,6.23
2018-05-24T09:17:58.060Z,8.67
2018-05-24T09:20:26.365Z,7.73
2018-05-24T09:25:28.469Z,6.90
2018-05-24T09:27:55.939Z,6.67
2018-05-24T09:30:24.257Z,8.40
2018-05-24T09:32:52.474Z,7.00
2018-05-24T09:35:20.016Z,9.87
2018-05-24T09:37:47.495Z,8.10
2018-05-24T09:40:14.978Z,8.30
2018-05-24T09:42:42.457Z,5.53
2018-05-24T09:45:10.679Z,6.33
2018-05-24T09:50:29.525Z,7.17
2018-05-24T09:52:58.065Z,6.10
2018-05-24T09:55:25.703Z,7.47
2018-05-24T09:57:53.037Z,6.10
2018-05-24T10:00:23.467Z,10.27
2018-05-24T10:02:50.937Z,8.97
2018-05-24T10:05:18.393Z,6.50
2018-05-24T10:07:45.890Z,7.73
2018-05-24T10:10:14.164Z,6.40
2018-05-24T10:12:41.619Z,7.30
2018-05-24T10:15:09.876Z,6.30
2018-05-24T10:17:38.887Z,8.23
2018-05-24T10:20:07.121Z,9.00
2018-05-24T10:22:34.588Z,7.17
2018-05-24T10:25:02.077Z,6.30
2018-05-24T10:27:30.629Z,7.40
2018-05-24T10:29:58.136Z,8.30
2018-05-24T10:32:25.667Z,6.57
2018-05-24T10:34:53.932Z,6.70
2018-05-24T10:37:21.401Z,7.60
2018-05-24T10:39:49.642Z,8.07
2018-05-24T10:42:17.116Z,7.73
2018-05-24T10:44:45.364Z,9.00
2018-05-24T10:47:12.874Z,6.57
2018-05-24T10:49:41.145Z,6.90
2018-05-24T10:52:08.624Z,8.63
2018-05-24T10:54:36.097Z,7.53
2018-05-24T10:57:03.590Z,7.93
2018-05-24T10:59:31.877Z,7.27
2018-05-24T11:01:59.336Z,7.53
2018-05-24T11:04:26.924Z,6.97
2018-05-24T11:06:54.383Z,8.07
2018-05-24T11:09:21.844Z,7.33
2018-05-24T11:11:49.333Z,7.80
2018-05-24T11:14:16.805Z,7.13
2018-05-24T11:16:44.325Z,7.47
2018-05-24T11:19:11.805Z,8.17
2018-05-24T11:21:39.270Z,8.23
2018-05-24T11:24:07.617Z,8.20
2018-05-24T11:26:35.104Z,7.93
2018-05-24T11:29:03.344Z,8.63
2018-05-24T11:31:30.801Z,7.50
2018-05-24T11:33:58.281Z,8.47
2018-05-24T11:36:25.768Z,7.80
2018-05-24T11:38:53.245Z,7.23
2018-05-24T11:41:21.612Z,7.93
2018-05-24T11:43:49.093Z,9.07
2018-05-24T11:46:16.557Z,8.30
2018-05-24T11:48:44.039Z,9.03
2018-05-24T11:51:11.511Z,11.67
2018-05-24T11:53:39.760Z,7.63
2018-05-24T11:56:07.232Z,6.37
2018-05-24T11:58:34.708Z,7.10
2018-05-24T12:01:02.182Z,6.87
2018-05-24T12:03:29.669Z,6.60
2018-05-24T12:05:57.129Z,5.50
2018-05-24T12:08:24.613Z,6.27
2018-05-24T12:10:52.851Z,3.93
2018-05-24T12:13:20.380Z,4.80
2018-05-24T12:15:47.858Z,4.40
2018-05-24T12:18:15.327Z,4.23
2018-05-24T12:20:42.821Z,6.07
2018-05-24T12:23:11.077Z,4.80
2018-05-24T12:25:38.578Z,5.27
2018-05-24T12:28:06.051Z,4.40
2018-05-24T12:30:33.582Z,4.03
2018-05-24T12:33:01.086Z,3.87
2018-05-24T12:35:28.682Z,3.57
2018-05-24T12:37:56.818Z,3.27
2018-05-24T12:40:24.288Z,3.50
2018-05-24T12:42:51.763Z,6.73
2018-05-24T12:45:20.471Z,4.87
2018-05-24T12:47:47.965Z,3.43
2018-05-24T12:50:15.444Z,5.83
2018-05-24T12:52:42.953Z,3.87
2018-05-24T12:55:10.413Z,3.77
2018-05-24T13:00:11.898Z,3.30
2018-05-24T13:02:39.367Z,4.80
2018-05-24T13:05:06.871Z,3.70
2018-05-24T13:07:35.105Z,4.33
2018-05-24T13:10:02.565Z,3.63
2018-05-24T13:12:30.026Z,3.47
2018-05-24T13:14:58.276Z,4.10
2018-05-24T13:17:25.742Z,6.40
2018-05-24T13:19:53.222Z,3.97
2018-05-24T13:22:21.465Z,4.07
2018-05-24T13:24:48.949Z,4.33
2018-05-24T13:27:17.212Z,4.20
2018-05-24T13:29:44.694Z,3.87
2018-05-24T13:32:12.952Z,3.93
2018-05-24T13:34:40.418Z,4.20
2018-05-24T13:37:08.679Z,3.87
2018-05-24T13:39:36.175Z,4.47
2018-05-24T13:42:03.661Z,7.33
2018-05-24T13:44:31.122Z,5.37
2018-05-24T13:46:58.612Z,5.47
2018-05-24T13:49:26.886Z,5.83
2018-05-24T13:51:55.142Z,7.47
2018-05-24T13:54:22.610Z,6.30
2018-05-24T13:56:50.864Z,7.60
2018-05-24T13:59:18.345Z,6.00
2018-05-24T14:01:47.088Z,6.17
2018-05-24T14:04:14.569Z,6.63
2018-05-24T14:06:42.038Z,5.83
2018-05-24T14:09:10.297Z,5.77
2018-05-24T14:11:37.774Z,5.40
2018-05-24T14:14:06.025Z,8.07
2018-05-24T14:16:33.526Z,6.70
2018-05-24T14:19:01.007Z,7.03
2018-05-24T14:21:28.473Z,5.20
2018-05-24T14:23:55.944Z,5.60
2018-05-24T14:26:23.492Z,4.73
2018-05-24T14:28:50.983Z,5.80
2018-05-24T14:31:19.220Z,4.40
2018-05-24T14:33:46.685Z,6.03
2018-05-24T14:36:14.164Z,3.83
2018-05-24T14:38:41.641Z,7.50
2018-05-24T14:41:09.881Z,4.93
2018-05-24T14:43:37.375Z,5.20
2018-05-24T14:46:04.888Z,7.27
2018-05-24T14:48:32.394Z,7.63
2018-05-24T14:50:59.852Z,8.00
2018-05-24T14:53:27.346Z,11.63
2018-05-24T14:55:54.831Z,9.33
2018-05-24T14:58:23.828Z,10.80
2018-05-24T15:00:53.733Z,12.00
2018-05-24T15:03:21.201Z,12.23
2018-05-24T15:05:49.456Z,11.93
2018-05-24T15:08:17.820Z,13.30
2018-05-24T15:10:45.297Z,12.93
2018-05-24T15:13:25.430Z,13.53
2018-05-24T15:15:52.917Z,15.50
2018-05-24T15:18:21.169Z,13.63
2018-05-24T15:20:48.651Z,14.60
2018-05-24T15:23:16.922Z,14.80
2018-05-24T15:25:45.175Z,16.03
2018-05-24T15:28:12.682Z,16.50
2018-05-24T15:30:40.190Z,18.57
2018-05-24T15:33:07.720Z,15.57
2018-05-24T15:35:35.250Z,15.57
2018-05-24T15:38:02.728Z,16.07
2018-05-24T15:40:30.225Z,14.30
2018-05-24T15:42:58.486Z,16.40
2018-05-24T15:45:25.959Z,16.13
2018-05-24T15:47:53.429Z,15.57
2018-05-24T15:50:21.663Z,14.13
2018-05-24T15:52:49.166Z,13.30
2018-05-24T15:55:17.560Z,14.97
2018-05-24T15:57:47.087Z,13.27
2018-05-24T16:00:14.568Z,11.73
2018-05-24T16:02:42.057Z,12.03
2018-05-24T16:05:10.302Z,11.20
2018-05-24T16:07:37.793Z,12.77
2018-05-24T16:10:06.025Z,11.33
2018-05-24T16:12:33.494Z,9.60
2018-05-24T16:15:00.974Z,9.33
2018-05-24T16:17:29.228Z,9.47
2018-05-24T16:19:57.550Z,8.53
2018-05-24T16:22:25.013Z,7.90
2018-05-24T16:24:53.105Z,6.23
2018-05-24T16:27:20.593Z,5.83
2018-05-24T16:29:48.048Z,5.50
2018-05-24T16:32:16.296Z,6.57
2018-05-24T16:34:43.770Z,5.10
2018-05-24T16:37:11.273Z,4.40
2018-05-24T16:39:38.777Z,4.93
2018-05-24T16:42:06.285Z,4.77
2018-05-24T16:44:33.751Z,4.60
2018-05-24T16:47:01.236Z,6.20
2018-05-24T16:49:28.713Z,4.53
2018-05-24T16:51:56.203Z,5.30
2018-05-24T16:54:23.702Z,4.57
2018-05-24T16:56:51.184Z,4.70
2018-05-24T16:59:19.446Z,4.10
2018-05-24T17:01:47.034Z,4.17
2018-05-24T17:04:15.336Z,4.33
2018-05-24T17:06:42.807Z,4.03
2018-05-24T17:09:10.304Z,3.67
2018-05-24T17:11:37.792Z,4.73
2018-05-24T17:14:05.264Z,3.80
2018-05-24T17:16:32.761Z,4.10
2018-05-24T17:19:00.240Z,3.67
2018-05-24T17:21:28.458Z,3.97
2018-05-24T17:23:55.965Z,3.70
2018-05-24T17:26:23.440Z,3.90
2018-05-24T17:28:50.914Z,4.27
2018-05-24T17:31:18.405Z,3.70
2018-05-24T17:33:45.898Z,4.00
2018-05-24T17:36:14.134Z,4.50
2018-05-24T17:38:41.630Z,4.10
2018-05-24T17:41:09.096Z,3.30
2018-05-24T17:43:36.578Z,4.07
2018-05-24T17:46:04.076Z,3.67
2018-05-24T17:48:31.533Z,4.57
2018-05-24T17:50:59.041Z,4.03
2018-05-24T17:53:26.509Z,7.00
2018-05-24T17:55:53.982Z,3.70
2018-05-24T17:58:21.459Z,4.17
2018-05-24T18:00:48.957Z,3.60
2018-05-24T18:03:16.479Z,3.50
2018-05-24T18:05:43.896Z,4.77
2018-05-24T18:08:11.363Z,4.60
2018-05-24T18:10:38.837Z,5.60
2018-05-24T18:13:06.289Z,5.67
2018-05-24T18:15:33.771Z,4.53
2018-05-24T18:18:02.011Z,3.93
2018-05-24T18:20:29.474Z,4.90
2018-05-24T18:22:56.962Z,4.60
2018-05-24T18:25:25.197Z,4.53
2018-05-24T18:27:52.682Z,5.20
2018-05-24T18:30:20.921Z,5.33
2018-05-24T18:32:48.422Z,5.33
2018-05-24T18:35:16.657Z,5.60
2018-05-24T18:37:44.129Z,5.80
2018-05-24T18:40:11.599Z,5.60
2018-05-24T18:42:39.903Z,6.17
2018-05-24T18:45:08.109Z,5.60
2018-05-24T18:47:35.609Z,6.33
2018-05-24T18:50:03.115Z,6.47
2018-05-24T18:52:30.581Z,6.30
2018-05-24T18:54:58.111Z,5.83
2018-05-24T18:57:25.602Z,6.43
2018-05-24T18:59:53.093Z,6.80
2018-05-24T19:02:20.569Z,6.47
2018-05-24T19:04:48.048Z,6.23
2018-05-24T19:07:15.537Z,7.20
2018-05-24T19:09:43.789Z,7.50
2018-05-24T19:12:11.285Z,9.30
2018-05-24T19:14:38.749Z,6.77
2018-05-24T19:17:06.247Z,7.03
2018-05-24T19:19:33.741Z,8.03
2018-05-24T19:22:01.971Z,7.17
2018-05-24T19:24:29.445Z,7.20
2018-05-24T19:26:56.905Z,7.30
2018-05-24T19:29:24.455Z,7.43
2018-05-24T19:31:51.893Z,8.07
2018-05-24T19:34:19.389Z,8.20
2018-05-24T19:36:46.911Z,7.83
2018-05-24T19:39:14.375Z,7.03
2018-05-24T19:41:41.876Z,7.47
2018-05-24T19:44:10.113Z,9.17
2018-05-24T19:46:37.623Z,7.90
2018-05-24T19:49:05.117Z,7.97
2018-05-24T19:51:32.605Z,7.60
2018-05-24T19:54:00.073Z,8.27
2018-05-24T19:56:28.312Z,8.63
2018-05-24T19:58:55.873Z,8.80
2018-05-24T20:01:23.367Z,8.30
2018-05-24T20:03:51.649Z,8.20
2018-05-24T20:06:19.151Z,9.63
2018-05-24T20:08:46.622Z,9.30
2018-05-24T20:11:14.122Z,9.10
2018-05-24T20:13:41.603Z,8.97
2018-05-24T20:16:09.084Z,11.63
2018-05-24T20:18:36.576Z,10.27
2018-05-24T20:21:04.860Z,10.13
2018-05-24T20:23:33.130Z,9.77
2018-05-24T20:26:01.369Z,10.73
2018-05-24T20:28:28.854Z,10.43
2018-05-24T20:31:02.209Z,10.60
2018-05-24T20:33:29.688Z,10.43
2018-05-24T20:35:57.961Z,10.57
2018-05-24T20:38:26.285Z,10.47
2018-05-24T20:40:53.774Z,11.23
2018-05-24T20:43:21.261Z,10.50
2018-05-24T20:45:49.549Z,10.30
2018-05-24T20:48:17.807Z,10.40
2018-05-24T20:50:45.297Z,10.83
2018-05-24T20:53:12.778Z,11.07
2018-05-24T20:55:40.252Z,10.80
2018-05-24T20:58:07.752Z,11.33
2018-05-24T21:00:36.012Z,11.47
2018-05-24T21:03:04.296Z,11.23
2018-05-24T21:05:32.557Z,11.67
2018-05-24T21:08:00.803Z,11.60
2018-05-24T21:10:28.293Z,10.90
2018-05-24T21:12:56.536Z,11.07
2018-05-24T21:15:24.041Z,12.10
2018-05-24T21:17:51.535Z,12.57
2018-05-24T21:20:19.049Z,11.80
2018-05-24T21:22:47.353Z,11.97
2018-05-24T21:25:14.835Z,12.77
2018-05-24T21:27:42.317Z,12.73
2018-05-24T21:30:10.561Z,13.87
2018-05-24T21:32:38.062Z,12.63
2018-05-24T21:35:06.314Z,12.97
2018-05-24T21:37:33.808Z,13.17
2018-05-24T21:40:01.303Z,13.07
2018-05-24T21:42:28.809Z,13.87
2018-05-24T21:44:57.060Z,14.13
2018-05-24T21:47:24.550Z,14.03
2018-05-24T21:49:52.065Z,14.10
2018-05-24T21:52:19.560Z,14.73
2018-05-24T21:54:47.045Z,13.90
2018-05-24T21:57:14.574Z,14.40
2018-05-24T21:59:42.805Z,14.67
2018-05-24T22:02:10.298Z,15.57
2018-05-24T22:04:38.541Z,15.50
2018-05-24T22:07:06.095Z,15.30
2018-05-24T22:09:33.605Z,14.93
2018-05-24T22:12:01.107Z,15.63
2018-05-24T22:14:28.597Z,15.10
2018-05-24T22:16:56.865Z,16.00
2018-05-24T22:19:24.360Z,14.93
2018-05-24T22:21:51.846Z,15.33
2018-05-24T22:24:19.338Z,15.10
2018-05-24T22:26:47.621Z,14.73
2018-05-24T22:29:15.868Z,15.83
2018-05-24T22:31:43.348Z,15.00
2018-05-24T22:34:10.854Z,15.37
2018-05-24T22:36:38.337Z,15.43
2018-05-24T22:39:05.993Z,15.67
2018-05-24T22:41:34.277Z,16.13
2018-05-24T22:44:02.536Z,16.20
2018-05-24T22:46:30.018Z,15.23
2018-05-24T22:48:58.915Z,16.50
2018-05-24T22:51:27.183Z,16.83
2018-05-24T22:53:55.434Z,16.23
2018-05-24T22:56:22.917Z,16.23
2018-05-24T22:58:52.034Z,17.87
2018-05-24T23:01:19.506Z,16.40
2018-05-24T23:03:46.992Z,18.43
2018-05-24T23:06:14.480Z,17.57
2018-05-24T23:08:42.730Z,17.97
2018-05-24T23:11:10.228Z,18.33
2018-05-24T23:13:37.717Z,18.10
2018-05-24T23:16:05.187Z,19.03
2018-05-24T23:18:32.677Z,18.97
2018-05-24T23:21:00.922Z,20.77
2018-05-24T23:23:28.409Z,17.80
2018-05-24T23:25:55.923Z,20.33
2018-05-24T23:28:23.396Z,20.13
2018-05-24T23:30:50.889Z,20.40
2018-05-24T23:33:19.027Z,20.43
2018-05-24T23:35:46.508Z,20.10
2018-05-24T23:38:14.790Z,20.97
2018-05-24T23:40:42.278Z,20.83
2018-05-24T23:43:09.840Z,22.20
2018-05-24T23:45:37.356Z,22.47
2018-05-24T23:48:05.605Z,21.80
2018-05-24T23:50:33.074Z,21.20
2018-05-24T23:53:01.367Z,21.00
2018-05-24T23:55:28.883Z,22.37
2018-05-24T23:57:56.387Z,21.00
